createdAt,value
2018-09-19T00:01:54.110Z,48.2
2018-09-19T00:14:13.132Z,49.3
2018-09-19T00:24:52.026Z,50.9
2018-09-19T00:38:50.205Z,51.5
2018-09-19T00:49:35.151Z,50.8
2018-09-19T01:00:21.617Z,51.0
2018-09-19T01:10:54.210Z,51.1
2018-09-19T01:21:35.023Z,51.1
2018-09-19T01:32:05.512Z,50.8
2018-09-19T01:42:58.485Z,52.5
2018-09-19T01:54:10.777Z,52.5
2018-09-19T02:05:22.505Z,52.6
2018-09-19T02:18:29.756Z,51.1
2018-09-19T02:29:59.078Z,50.2
2018-09-19T02:41:26.935Z,49.7
2018-09-19T02:52:41.040Z,49.7
2018-09-19T03:16:21.655Z,49.2
2018-09-19T03:28:32.896Z,49.7
2018-09-19T03:39:47.397Z,49.5
2018-09-19T03:52:33.248Z,49.5
2018-09-19T04:03:52.804Z,49.3
2018-09-19T04:36:16.450Z,48.0
2018-09-19T04:48:10.664Z,48.5
2018-09-19T04:58:59.895Z,48.7
2018-09-19T05:11:15.376Z,48.1
2018-09-19T05:21:42.100Z,48.1
2018-09-19T05:32:17.856Z,50.0
2018-09-19T05:42:48.738Z,50.5
2018-09-19T05:53:19.200Z,51.0
2018-09-19T06:03:54.612Z,52.8
2018-09-19T06:14:09.012Z,54.8
2018-09-19T06:24:25.102Z,53.0
2018-09-19T06:35:05.253Z,54.7
2018-09-19T06:45:51.408Z,57.6
2018-09-19T06:56:17.782Z,58.1
2018-09-19T07:08:01.509Z,56.7
2018-09-19T07:20:13.480Z,56.1
2018-09-19T07:30:43.073Z,57.1
2018-09-19T07:43:10.390Z,54.9
2018-09-19T07:54:37.254Z,50.3
2018-09-19T08:04:51.389Z,48.8
2018-09-19T08:15:16.574Z,47.1
2018-09-19T08:25:47.947Z,46.9
2018-09-19T08:36:02.569Z,44.4
2018-09-19T08:46:48.155Z,42.3
2018-09-19T08:58:30.264Z,41.0
2018-09-19T09:08:54.067Z,39.1
2018-09-19T09:19:42.896Z,37.7
2018-09-19T09:30:53.992Z,36.8
2018-09-19T09:42:30.532Z,35.8
2018-09-19T09:52:44.812Z,34.4
2018-09-19T10:03:35.131Z,34.0
2018-09-19T10:15:03.076Z,32.8
2018-09-19T10:26:35.778Z,32.2
2018-09-19T10:38:05.530Z,34.0
2018-09-19T10:48:51.817Z,34.9
2018-09-19T11:06:00.249Z,35.3
2018-09-19T11:17:13.102Z,36.1
2018-09-19T11:46:54.071Z,37.6
2018-09-19T11:57:08.776Z,38.2
2018-09-19T12:08:51.624Z,38.7
2018-09-19T12:31:38.261Z,35.5
2018-09-19T12:41:53.132Z,35.0
2018-09-19T12:52:39.090Z,34.9
2018-09-19T13:13:39.045Z,34.3
2018-09-19T13:23:51.531Z,34.6
2018-09-19T13:34:08.120Z,34.4
2018-09-19T13:44:52.849Z,33.7
2018-09-19T13:55:07.266Z,33.8
2018-09-19T14:05:52.339Z,33.3
2018-09-19T14:16:06.493Z,33.1
2018-09-19T14:26:21.055Z,33.0
2018-09-19T14:36:32.954Z,32.9
2018-09-19T14:46:47.640Z,33.1
2018-09-19T14:57:00.231Z,32.4
2018-09-19T15:07:13.608Z,32.2
2018-09-19T15:17:24.953Z,32.3
2018-09-19T15:27:39.670Z,32.4
2018-09-19T15:38:24.918Z,33.0
2018-09-19T15:49:09.521Z,33.6
2018-09-19T15:59:23.325Z,34.3
2018-09-19T16:09:38.213Z,34.9
2018-09-19T16:19:52.879Z,35.5
2018-09-19T16:30:07.005Z,35.8
2018-09-19T16:40:28.496Z,36.4
2018-09-19T16:50:42.021Z,36.7
2018-09-19T17:01:27.994Z,36.9
2018-09-19T17:11:42.781Z,37.2
2018-09-19T17:21:56.298Z,37.8
2018-09-19T17:32:10.509Z,38.4
2018-09-19T17:53:12.779Z,39.0
2018-09-19T18:03:58.329Z,39.7
2018-09-19T18:14:13.339Z,40.0
2018-09-19T18:24:27.854Z,40.2
2018-09-19T18:35:13.374Z,40.5
2018-09-19T18:45:27.460Z,41.1
2018-09-19T18:56:12.961Z,41.2
2018-09-19T19:06:27.251Z,41.7
2018-09-19T19:16:40.455Z,41.8
2018-09-19T19:26:52.637Z,42.2
2018-09-19T19:37:06.129Z,42.6
2018-09-19T19:47:22.806Z,43.1
2018-09-19T19:57:36.704Z,43.4
2018-09-19T20:07:48.062Z,44.1
2018-09-19T20:18:02.144Z,44.6
2018-09-19T20:28:47.677Z,45.0
2018-09-19T20:39:21.736Z,45.4
2018-09-19T20:49:35.040Z,45.8
2018-09-19T21:00:19.789Z,46.3
2018-09-19T21:10:33.292Z,46.7
2018-09-19T21:20:45.563Z,47.2
2018-09-19T21:30:59.867Z,48.3
2018-09-19T21:41:45.216Z,48.8
2018-09-19T21:51:59.387Z,48.9
2018-09-19T22:02:14.211Z,49.4
2018-09-19T22:12:27.897Z,49.6
2018-09-19T22:22:41.994Z,49.7
2018-09-19T22:32:56.384Z,50.5
2018-09-19T22:43:10.390Z,49.7
2018-09-19T22:53:24.008Z,50.2
2018-09-19T23:03:38.093Z,49.6
2018-09-19T23:13:50.210Z,49.3
2018-09-19T23:24:05.157Z,49.3
2018-09-19T23:34:50.200Z,49.7
2018-09-19T23:45:35.954Z,50.1
2018-09-19T23:55:50.213Z,49.8
